Forside
METAR-TAF:

METAR-TAF

Lufthavne :

Kumamoto, Japan

Breddekreds: 32-50N, længdekreds: 130-51E, højde: 193 m

Aktuelle vejr

Denne rapport blev lavet for 32 minutter siden, kl. 08:00 UTC
Vind 8 kt fra nord, varierende mellem nordnordvest og østnordøst
Temperatur 10°C
Fugtighed 50%
Tryk 1024 hPa
Sigt 10 km eller mere
Nogle få skyer i en højde af 3000 ft
Spredte skyer i en højde af 5000 ft

METAR: RJFT 270800Z 01008KT 330V060 9999 FEW030 SCT050 10/M00 Q1024

Tid: 17:32 (08:32 UTC)

Vejrudsigter

Denne rapport blev lavet for 3 timer og 26 minutter siden, kl. 05:06 UTC
Foreløbig gælder fra 27 på 06 UTC til 28 på 12 UTC
Vind 11 kt fra nordnordøst
Sigt 10 km eller mere
Nogle få skyer i en højde af 3000 ft
ændring
fra 28 på 00 UTC til 28 på 03 UTC
Vind 4 kt fra vestsydvest
ændring
fra 28 på 06 UTC til 28 på 09 UTC
Vind 5 kt fra østnordøst

TAF: RJFT 270506Z 2706/2812 03011KT 9999 FEW030 BECMG 2800/2803 25004KT BECMG 2806/2809 06005KT

Vejrobservationer og prognoser fra mere end 4000 lufthavne (METAR og TAF).

De gule og røde prikker repræsenterer de meteorologiske stationer.

Flyt musen over at se navnet på stationen.

Så klik over at se vejr observationer og prognoser.

At skifte det kort: Klik på de grønne knapper med et sort kors for at zoome ind; på den grønne knap med en bindestreg for at zoome ud; eller på de grønne pile for tilstødende kort.


METAR-TAF: